Columbia — WDD6400 — position and weather

sailwx.info

Track history (hours):
 
Tides and Currents Weather Stations Pressure Air Temp Water Temp Dewpoint Dewpoint Depression Visibility Wind Speed Wind Dir Waves Ship Positions

Columbia

Owner: OSG Ship Management Inc., Tampa, FL. More information available from US FCC via Universal Licensing System and Coast Guard Vessel Documentation Center.

Last reported at 2014-Nov-18 21:27 UTC. Time now 2014-Nov-24 00:06 UTC.
Position N 27°36' W 082°57'.

Length 194 m; draft 9 m.

Type: Towing. MMSI: 367172440.

Date/timePositionNaut miles runAvg speedWind from/ knotsBaromVisibWave heightAir tempDewpointWater temp
2014-Nov-18 21:27N 27°36' W 082°57'9 9.9
2014-Nov-18 20:33N 27°37' W 082°47'2 2.3
2014-Nov-18 19:32N 27°36' W 082°45'0 0.0
2014-Nov-18 18:31N 27°36' W 082°45'0 0.0
2014-Nov-18 17:31N 27°36' W 082°45'0 0.0
2014-Nov-18 16:25N 27°36' W 082°45'0 0.0
2014-Nov-18 15:25N 27°36' W 082°45'0 0.0
2014-Nov-18 14:31N 27°36' W 082°45'0 0.0
2014-Nov-18 13:31N 27°36' W 082°45'0 0.0
2014-Nov-18 12:31N 27°36' W 082°45'0 0.0
2014-Nov-18 11:31N 27°36' W 082°45'0 0.1
2014-Nov-18 10:33N 27°36' W 082°45'0 0.2
2014-Nov-18 09:33N 27°36' W 082°45'5 5.1
2014-Nov-18 08:33N 27°37' W 082°39'1110.9
2014-Nov-18 07:33N 27°46' W 082°31'9 9.1
2014-Nov-18 06:33N 27°54' W 082°26'2 2.5
2014-Nov-18 05:33N 27°56' W 082°27'0 0.0
2014-Nov-18 04:33N 27°56' W 082°27'0 0.0
2014-Nov-18 03:33N 27°56' W 082°27'0 0.0
2014-Nov-18 02:33N 27°56' W 082°27'0 0.0
2014-Nov-18 01:33N 27°56' W 082°27'0 0.0
2014-Nov-18 00:33N 27°56' W 082°27'0 0.0
2014-Nov-17 23:33N 27°56' W 082°27'0 0.0
2014-Nov-17 22:33N 27°56' W 082°27'0 0.0
2014-Nov-17 21:33N 27°56' W 082°27'0 0.0
2014-Nov-17 20:33N 27°56' W 082°27'0 0.0
2014-Nov-17 19:33N 27°56' W 082°27'0 0.0
2014-Nov-17 18:33N 27°56' W 082°27'0 0.0
2014-Nov-17 17:33N 27°56' W 082°27'0 0.0
2014-Nov-17 16:33N 27°56' W 082°27'0 0.0
2014-Nov-17 15:33N 27°56' W 082°27'0 0.0
2014-Nov-17 14:33N 27°56' W 082°27'0 0.0
2014-Nov-17 13:33N 27°56' W 082°27'0 0.0
2014-Nov-17 12:33N 27°56' W 082°27'0 0.4
2014-Nov-17 11:33N 27°56' W 082°27'0 0.5
2014-Nov-17 10:33N 27°55' W 082°27'0 0.0
2014-Nov-17 09:33N 27°55' W 082°27'1 0.8
2014-Nov-17 08:33N 27°55' W 082°26'0 0.0
2014-Nov-17 07:33N 27°55' W 082°26'0 0.0
2014-Nov-17 06:33N 27°55' W 082°26'0 0.0
2014-Nov-17 05:33N 27°55' W 082°26'0 0.0
2014-Nov-17 04:33N 27°55' W 082°26'0 0.0
2014-Nov-17 03:33N 27°55' W 082°26'0 0.0
2014-Nov-17 02:33N 27°55' W 082°26'0 0.0
2014-Nov-17 01:33N 27°55' W 082°26'0 0.0
2014-Nov-17 00:33N 27°55' W 082°26'0 0.0
2014-Nov-16 23:33N 27°55' W 082°26'0 0.0
2014-Nov-16 22:33N 27°55' W 082°26'0 0.0
2014-Nov-16 21:33N 27°55' W 082°26'0 0.0
2014-Nov-16 20:33N 27°55' W 082°26'0 0.0
2014-Nov-16 19:33N 27°55' W 082°26'0 0.0
2014-Nov-16 18:33N 27°55' W 082°26'0 0.0
2014-Nov-16 17:33N 27°55' W 082°26'0 0.0
2014-Nov-16 16:33N 27°55' W 082°26'0 0.0
2014-Nov-16 15:33N 27°55' W 082°26'0 0.0
2014-Nov-16 14:33N 27°55' W 082°26'0 0.0
2014-Nov-16 13:33N 27°55' W 082°26'0 0.0
2014-Nov-16 12:33N 27°55' W 082°26'0 0.0
2014-Nov-16 11:33N 27°55' W 082°26'1 0.8
2014-Nov-16 10:33N 27°55' W 082°27'0 0.0
2014-Nov-16 09:33N 27°55' W 082°27'0 0.0
2014-Nov-16 08:33N 27°55' W 082°27'2 2.2
2014-Nov-16 07:33N 27°53' W 082°26'8 8.2
2014-Nov-16 06:33N 27°46' W 082°31'9 8.8
2014-Nov-16 05:33N 27°39' W 082°37'8 8.4
2014-Nov-16 04:33N 27°37' W 082°46'9 9.3
2014-Nov-16 03:33N 27°36' W 082°57'10 9.4
2014-Nov-16 02:32N 27°36' W 083°08'  
Track history (hours):
 
Tides and Currents Weather Stations Pressure Air Temp Water Temp Dewpoint Dewpoint Depression Visibility Wind Speed Wind Dir Waves Ship Positions

Columbia

Owner: OSG Ship Management Inc., Tampa, FL. More information available from US FCC via Universal Licensing System and Coast Guard Vessel Documentation Center.

Last reported at 2014-Nov-18 21:27 UTC. Time now 2014-Nov-24 00:06 UTC.
Position N 27°36' W 082°57'.

Length 194 m; draft 9 m.

Type: Towing. MMSI: 367172440.

Date/timePositionNaut miles runAvg speedWind from/ knotsBaromVisibWave heightAir tempDewpointWater temp
2014-Nov-18 21:27N 27°36' W 082°57'9 9.9
2014-Nov-18 20:33N 27°37' W 082°47'2 2.3
2014-Nov-18 19:32N 27°36' W 082°45'0 0.0
2014-Nov-18 18:31N 27°36' W 082°45'0 0.0
2014-Nov-18 17:31N 27°36' W 082°45'0 0.0
2014-Nov-18 16:25N 27°36' W 082°45'0 0.0
2014-Nov-18 15:25N 27°36' W 082°45'0 0.0
2014-Nov-18 14:31N 27°36' W 082°45'0 0.0
2014-Nov-18 13:31N 27°36' W 082°45'0 0.0
2014-Nov-18 12:31N 27°36' W 082°45'0 0.0
2014-Nov-18 11:31N 27°36' W 082°45'0 0.1
2014-Nov-18 10:33N 27°36' W 082°45'0 0.2
2014-Nov-18 09:33N 27°36' W 082°45'5 5.1
2014-Nov-18 08:33N 27°37' W 082°39'1110.9
2014-Nov-18 07:33N 27°46' W 082°31'9 9.1
2014-Nov-18 06:33N 27°54' W 082°26'2 2.5
2014-Nov-18 05:33N 27°56' W 082°27'0 0.0
2014-Nov-18 04:33N 27°56' W 082°27'0 0.0
2014-Nov-18 03:33N 27°56' W 082°27'0 0.0
2014-Nov-18 02:33N 27°56' W 082°27'0 0.0
2014-Nov-18 01:33N 27°56' W 082°27'0 0.0
2014-Nov-18 00:33N 27°56' W 082°27'0 0.0
2014-Nov-17 23:33N 27°56' W 082°27'0 0.0
2014-Nov-17 22:33N 27°56' W 082°27'0 0.0
2014-Nov-17 21:33N 27°56' W 082°27'0 0.0
2014-Nov-17 20:33N 27°56' W 082°27'0 0.0
2014-Nov-17 19:33N 27°56' W 082°27'0 0.0
2014-Nov-17 18:33N 27°56' W 082°27'0 0.0
2014-Nov-17 17:33N 27°56' W 082°27'0 0.0
2014-Nov-17 16:33N 27°56' W 082°27'0 0.0
2014-Nov-17 15:33N 27°56' W 082°27'0 0.0
2014-Nov-17 14:33N 27°56' W 082°27'0 0.0
2014-Nov-17 13:33N 27°56' W 082°27'0 0.0
2014-Nov-17 12:33N 27°56' W 082°27'0 0.4
2014-Nov-17 11:33N 27°56' W 082°27'0 0.5
2014-Nov-17 10:33N 27°55' W 082°27'0 0.0
2014-Nov-17 09:33N 27°55' W 082°27'1 0.8
2014-Nov-17 08:33N 27°55' W 082°26'0 0.0
2014-Nov-17 07:33N 27°55' W 082°26'0 0.0
2014-Nov-17 06:33N 27°55' W 082°26'0 0.0
2014-Nov-17 05:33N 27°55' W 082°26'0 0.0
2014-Nov-17 04:33N 27°55' W 082°26'0 0.0
2014-Nov-17 03:33N 27°55' W 082°26'0 0.0
2014-Nov-17 02:33N 27°55' W 082°26'0 0.0
2014-Nov-17 01:33N 27°55' W 082°26'0 0.0
2014-Nov-17 00:33N 27°55' W 082°26'0 0.0
2014-Nov-16 23:33N 27°55' W 082°26'0 0.0
2014-Nov-16 22:33N 27°55' W 082°26'0 0.0
2014-Nov-16 21:33N 27°55' W 082°26'0 0.0
2014-Nov-16 20:33N 27°55' W 082°26'0 0.0
2014-Nov-16 19:33N 27°55' W 082°26'0 0.0
2014-Nov-16 18:33N 27°55' W 082°26'0 0.0
2014-Nov-16 17:33N 27°55' W 082°26'0 0.0
2014-Nov-16 16:33N 27°55' W 082°26'0 0.0
2014-Nov-16 15:33N 27°55' W 082°26'0 0.0
2014-Nov-16 14:33N 27°55' W 082°26'0 0.0
2014-Nov-16 13:33N 27°55' W 082°26'0 0.0
2014-Nov-16 12:33N 27°55' W 082°26'0 0.0
2014-Nov-16 11:33N 27°55' W 082°26'1 0.8
2014-Nov-16 10:33N 27°55' W 082°27'0 0.0
2014-Nov-16 09:33N 27°55' W 082°27'0 0.0
2014-Nov-16 08:33N 27°55' W 082°27'2 2.2
2014-Nov-16 07:33N 27°53' W 082°26'8 8.2
2014-Nov-16 06:33N 27°46' W 082°31'9 8.8
2014-Nov-16 05:33N 27°39' W 082°37'8 8.4
2014-Nov-16 04:33N 27°37' W 082°46'9 9.3
2014-Nov-16 03:33N 27°36' W 082°57'10 9.4
2014-Nov-16 02:32N 27°36' W 083°08'  

Dump ship's entire track history